Impact, Texas
Current Conditions -  °F | °C
As of 1:58 PM on Saturday 25 Oct 2014 (Local Time) from KDYS Reporting Station
Clear Clear  
Wind Chill: 89°   Ceiling: Unl
Heat Index: 89°   Visibility: 10mi
Dew Point: 50°   Wind: 12mph
Humidity: 27%   Direction: 170°S
Pressure: 30.12"   Gusts: 21mph
Location:  32.4875°N, 99.8071°W
Report Text: KDYS 251858Z AUTO 17010G18KT 10SM CLR 31/10 A3012 RMK AO2 SLP156 T03140100 $
Loading
Personal Weather Stations






























Interactive Weather Map
Tropical Storm Tracking
New forecast layout! Learn more

10-Day Weather Forecast

Advertisements
Track Severe Weather on mobile